sensor_id;sensor_type;location;lat;lon;timestamp;P1;durP1;ratioP1;P2;durP2;ratioP2
16478;SDS011;8350;52.316;10.530;2022-09-09T00:02:26;5.40;;;3.55;;
16478;SDS011;8350;52.316;10.530;2022-09-09T00:04:57;4.15;;;3.72;;
16478;SDS011;8350;52.316;10.530;2022-09-09T00:07:40;4.45;;;3.40;;
16478;SDS011;8350;52.316;10.530;2022-09-09T00:10:17;3.00;;;2.75;;
16478;SDS011;8350;52.316;10.530;2022-09-09T00:12:51;4.80;;;3.60;;
16478;SDS011;8350;52.316;10.530;2022-09-09T00:15:22;4.68;;;3.15;;
16478;SDS011;8350;52.316;10.530;2022-09-09T00:17:53;5.18;;;3.63;;
16478;SDS011;8350;52.316;10.530;2022-09-09T00:20:30;4.35;;;3.13;;
16478;SDS011;8350;52.316;10.530;2022-09-09T00:23:03;3.88;;;3.45;;
16478;SDS011;8350;52.316;10.530;2022-09-09T00:25:40;4.00;;;3.45;;
16478;SDS011;8350;52.316;10.530;2022-09-09T00:28:16;4.55;;;3.83;;
16478;SDS011;8350;52.316;10.530;2022-09-09T00:30:46;5.82;;;3.95;;
16478;SDS011;8350;52.316;10.530;2022-09-09T00:33:15;5.22;;;3.67;;
16478;SDS011;8350;52.316;10.530;2022-09-09T00:35:48;5.35;;;3.72;;
16478;SDS011;8350;52.316;10.530;2022-09-09T00:38:18;4.25;;;3.33;;
16478;SDS011;8350;52.316;10.530;2022-09-09T00:40:53;7.13;;;3.63;;
16478;SDS011;8350;52.316;10.530;2022-09-09T00:43:26;3.30;;;3.00;;
16478;SDS011;8350;52.316;10.530;2022-09-09T00:46:01;3.60;;;3.30;;
16478;SDS011;8350;52.316;10.530;2022-09-09T00:48:51;5.20;;;2.85;;
16478;SDS011;8350;52.316;10.530;2022-09-09T00:51:28;3.10;;;2.80;;
16478;SDS011;8350;52.316;10.530;2022-09-09T00:54:11;3.10;;;2.80;;
16478;SDS011;8350;52.316;10.530;2022-09-09T00:56:55;3.72;;;2.60;;
16478;SDS011;8350;52.316;10.530;2022-09-09T00:59:32;2.78;;;2.35;;
16478;SDS011;8350;52.316;10.530;2022-09-09T01:02:09;2.85;;;2.50;;
16478;SDS011;8350;52.316;10.530;2022-09-09T01:04:48;4.90;;;2.58;;
16478;SDS011;8350;52.316;10.530;2022-09-09T01:07:17;4.00;;;2.63;;
16478;SDS011;8350;52.316;10.530;2022-09-09T01:09:50;3.10;;;2.80;;
16478;SDS011;8350;52.316;10.530;2022-09-09T01:12:24;4.10;;;3.05;;
16478;SDS011;8350;52.316;10.530;2022-09-09T01:14:56;3.47;;;3.10;;
16478;SDS011;8350;52.316;10.530;2022-09-09T01:17:30;2.88;;;2.58;;
16478;SDS011;8350;52.316;10.530;2022-09-09T01:20:02;2.40;;;2.20;;
16478;SDS011;8350;52.316;10.530;2022-09-09T01:22:36;3.40;;;2.50;;
16478;SDS011;8350;52.316;10.530;2022-09-09T01:25:13;3.10;;;2.10;;
16478;SDS011;8350;52.316;10.530;2022-09-09T01:27:58;3.35;;;2.40;;
16478;SDS011;8350;52.316;10.530;2022-09-09T01:30:29;2.78;;;2.58;;
16478;SDS011;8350;52.316;10.530;2022-09-09T01:32:57;3.10;;;2.47;;
16478;SDS011;8350;52.316;10.530;2022-09-09T01:35:37;3.70;;;2.75;;
16478;SDS011;8350;52.316;10.530;2022-09-09T01:38:09;4.07;;;2.78;;
16478;SDS011;8350;52.316;10.530;2022-09-09T01:40:36;3.72;;;2.70;;
16478;SDS011;8350;52.316;10.530;2022-09-09T01:43:05;4.30;;;2.83;;
16478;SDS011;8350;52.316;10.530;2022-09-09T01:45:32;2.38;;;2.17;;
16478;SDS011;8350;52.316;10.530;2022-09-09T01:48:00;3.42;;;2.55;;
16478;SDS011;8350;52.316;10.530;2022-09-09T01:50:28;4.93;;;2.47;;
16478;SDS011;8350;52.316;10.530;2022-09-09T01:52:56;3.53;;;2.28;;
16478;SDS011;8350;52.316;10.530;2022-09-09T01:55:28;3.72;;;2.15;;
16478;SDS011;8350;52.316;10.530;2022-09-09T01:57:59;4.30;;;2.50;;
16478;SDS011;8350;52.316;10.530;2022-09-09T02:00:39;3.70;;;2.47;;
16478;SDS011;8350;52.316;10.530;2022-09-09T02:03:13;5.30;;;2.20;;
16478;SDS011;8350;52.316;10.530;2022-09-09T02:05:50;2.85;;;2.20;;
16478;SDS011;8350;52.316;10.530;2022-09-09T02:08:28;2.92;;;2.03;;
16478;SDS011;8350;52.316;10.530;2022-09-09T02:11:00;2.13;;;1.92;;
16478;SDS011;8350;52.316;10.530;2022-09-09T02:13:33;2.55;;;1.83;;
16478;SDS011;8350;52.316;10.530;2022-09-09T02:16:03;2.58;;;2.00;;
16478;SDS011;8350;52.316;10.530;2022-09-09T02:18:47;2.75;;;1.92;;
16478;SDS011;8350;52.316;10.530;2022-09-09T02:21:17;1.90;;;1.80;;
16478;SDS011;8350;52.316;10.530;2022-09-09T02:23:45;3.72;;;2.38;;
16478;SDS011;8350;52.316;10.530;2022-09-09T02:26:17;3.95;;;1.77;;
16478;SDS011;8350;52.316;10.530;2022-09-09T02:28:50;2.13;;;1.50;;
16478;SDS011;8350;52.316;10.530;2022-09-09T02:31:20;2.35;;;2.00;;
16478;SDS011;8350;52.316;10.530;2022-09-09T02:33:51;4.22;;;2.05;;
16478;SDS011;8350;52.316;10.530;2022-09-09T02:36:22;5.10;;;2.33;;
16478;SDS011;8350;52.316;10.530;2022-09-09T02:38:52;3.55;;;2.08;;
16478;SDS011;8350;52.316;10.530;2022-09-09T02:41:19;2.13;;;1.67;;
16478;SDS011;8350;52.316;10.530;2022-09-09T02:43:51;4.07;;;1.92;;
16478;SDS011;8350;52.316;10.530;2022-09-09T02:46:23;2.17;;;1.88;;
16478;SDS011;8350;52.316;10.530;2022-09-09T02:48:58;5.70;;;1.88;;
16478;SDS011;8350;52.316;10.530;2022-09-09T02:51:29;5.60;;;1.92;;
16478;SDS011;8350;52.316;10.530;2022-09-09T02:54:09;2.33;;;1.70;;
16478;SDS011;8350;52.316;10.530;2022-09-09T02:56:43;3.03;;;1.48;;
16478;SDS011;8350;52.316;10.530;2022-09-09T02:59:17;2.35;;;1.80;;
16478;SDS011;8350;52.316;10.530;2022-09-09T03:01:45;3.65;;;1.90;;
16478;SDS011;8350;52.316;10.530;2022-09-09T03:04:12;4.15;;;1.60;;
16478;SDS011;8350;52.316;10.530;2022-09-09T03:06:39;2.20;;;1.38;;
16478;SDS011;8350;52.316;10.530;2022-09-09T03:09:06;2.13;;;1.67;;
16478;SDS011;8350;52.316;10.530;2022-09-09T03:11:37;3.42;;;1.77;;
16478;SDS011;8350;52.316;10.530;2022-09-09T03:14:04;1.95;;;1.65;;
16478;SDS011;8350;52.316;10.530;2022-09-09T03:16:33;3.00;;;1.90;;
16478;SDS011;8350;52.316;10.530;2022-09-09T03:19:00;4.47;;;1.80;;
16478;SDS011;8350;52.316;10.530;2022-09-09T03:21:27;2.33;;;1.80;;
16478;SDS011;8350;52.316;10.530;2022-09-09T03:23:54;2.47;;;1.42;;
16478;SDS011;8350;52.316;10.530;2022-09-09T03:26:22;2.35;;;1.60;;
16478;SDS011;8350;52.316;10.530;2022-09-09T03:28:49;3.10;;;1.85;;
16478;SDS011;8350;52.316;10.530;2022-09-09T03:31:17;4.07;;;1.80;;
16478;SDS011;8350;52.316;10.530;2022-09-09T03:33:46;2.42;;;1.42;;
16478;SDS011;8350;52.316;10.530;2022-09-09T03:36:13;1.80;;;1.42;;
16478;SDS011;8350;52.316;10.530;2022-09-09T03:38:40;2.13;;;1.60;;
16478;SDS011;8350;52.316;10.530;2022-09-09T03:41:07;2.80;;;1.27;;
16478;SDS011;8350;52.316;10.530;2022-09-09T03:43:34;1.70;;;1.42;;
16478;SDS011;8350;52.316;10.530;2022-09-09T03:46:02;3.03;;;1.90;;
16478;SDS011;8350;52.316;10.530;2022-09-09T03:48:29;2.33;;;1.88;;
16478;SDS011;8350;52.316;10.530;2022-09-09T03:50:58;3.67;;;1.27;;
16478;SDS011;8350;52.316;10.530;2022-09-09T03:53:26;4.53;;;1.98;;
16478;SDS011;8350;52.316;10.530;2022-09-09T03:55:54;2.38;;;1.50;;
16478;SDS011;8350;52.316;10.530;2022-09-09T03:58:24;3.13;;;1.40;;
16478;SDS011;8350;52.316;10.530;2022-09-09T04:00:53;1.70;;;1.60;;
16478;SDS011;8350;52.316;10.530;2022-09-09T04:03:21;4.13;;;1.60;;
16478;SDS011;8350;52.316;10.530;2022-09-09T04:05:49;2.13;;;1.65;;
16478;SDS011;8350;52.316;10.530;2022-09-09T04:08:18;2.15;;;1.70;;
16478;SDS011;8350;52.316;10.530;2022-09-09T04:10:46;4.30;;;1.60;;
16478;SDS011;8350;52.316;10.530;2022-09-09T04:13:13;3.35;;;1.70;;
16478;SDS011;8350;52.316;10.530;2022-09-09T04:15:42;2.70;;;1.88;;
16478;SDS011;8350;52.316;10.530;2022-09-09T04:18:09;3.70;;;2.00;;
16478;SDS011;8350;52.316;10.530;2022-09-09T04:20:36;3.33;;;1.90;;
16478;SDS011;8350;52.316;10.530;2022-09-09T04:23:04;6.85;;;2.25;;
16478;SDS011;8350;52.316;10.530;2022-09-09T04:25:32;4.13;;;2.63;;
16478;SDS011;8350;52.316;10.530;2022-09-09T04:27:59;1.95;;;1.67;;
16478;SDS011;8350;52.316;10.530;2022-09-09T04:30:27;3.28;;;1.77;;
16478;SDS011;8350;52.316;10.530;2022-09-09T04:32:54;4.40;;;2.63;;
16478;SDS011;8350;52.316;10.530;2022-09-09T04:35:23;4.38;;;2.00;;
16478;SDS011;8350;52.316;10.530;2022-09-09T04:37:49;4.07;;;2.22;;
16478;SDS011;8350;52.316;10.530;2022-09-09T04:40:17;2.22;;;1.85;;
16478;SDS011;8350;52.316;10.530;2022-09-09T04:42:45;2.65;;;1.63;;
16478;SDS011;8350;52.316;10.530;2022-09-09T04:45:13;2.80;;;1.70;;
16478;SDS011;8350;52.316;10.530;2022-09-09T04:47:40;2.30;;;1.88;;
16478;SDS011;8350;52.316;10.530;2022-09-09T04:50:08;4.13;;;2.40;;
16478;SDS011;8350;52.316;10.530;2022-09-09T04:52:35;4.95;;;2.40;;
16478;SDS011;8350;52.316;10.530;2022-09-09T04:55:02;4.35;;;2.42;;
16478;SDS011;8350;52.316;10.530;2022-09-09T04:57:30;3.22;;;2.38;;
16478;SDS011;8350;52.316;10.530;2022-09-09T04:59:59;4.60;;;2.45;;
16478;SDS011;8350;52.316;10.530;2022-09-09T05:02:27;3.97;;;2.90;;
16478;SDS011;8350;52.316;10.530;2022-09-09T05:04:55;5.32;;;2.67;;
16478;SDS011;8350;52.316;10.530;2022-09-09T05:07:22;4.32;;;3.20;;
16478;SDS011;8350;52.316;10.530;2022-09-09T05:09:49;4.88;;;2.92;;
16478;SDS011;8350;52.316;10.530;2022-09-09T05:12:16;4.40;;;3.00;;
16478;SDS011;8350;52.316;10.530;2022-09-09T05:14:43;4.85;;;3.22;;
16478;SDS011;8350;52.316;10.530;2022-09-09T05:17:11;3.60;;;2.70;;
16478;SDS011;8350;52.316;10.530;2022-09-09T05:19:40;2.97;;;2.67;;
16478;SDS011;8350;52.316;10.530;2022-09-09T05:22:07;5.32;;;3.00;;
16478;SDS011;8350;52.316;10.530;2022-09-09T05:24:34;3.63;;;3.10;;
16478;SDS011;8350;52.316;10.530;2022-09-09T05:27:02;5.22;;;3.30;;
16478;SDS011;8350;52.316;10.530;2022-09-09T05:29:31;4.95;;;2.95;;
16478;SDS011;8350;52.316;10.530;2022-09-09T05:31:59;6.43;;;3.60;;
16478;SDS011;8350;52.316;10.530;2022-09-09T05:34:27;4.00;;;3.50;;
16478;SDS011;8350;52.316;10.530;2022-09-09T05:36:54;4.97;;;2.80;;
16478;SDS011;8350;52.316;10.530;2022-09-09T05:39:21;3.10;;;2.60;;
16478;SDS011;8350;52.316;10.530;2022-09-09T05:41:48;4.43;;;2.75;;
16478;SDS011;8350;52.316;10.530;2022-09-09T05:44:16;5.80;;;2.67;;
16478;SDS011;8350;52.316;10.530;2022-09-09T05:46:44;4.00;;;2.63;;
16478;SDS011;8350;52.316;10.530;2022-09-09T05:49:11;3.08;;;2.30;;
16478;SDS011;8350;52.316;10.530;2022-09-09T05:51:39;3.55;;;2.45;;
16478;SDS011;8350;52.316;10.530;2022-09-09T05:54:07;6.65;;;2.28;;
16478;SDS011;8350;52.316;10.530;2022-09-09T05:56:35;3.47;;;2.40;;
16478;SDS011;8350;52.316;10.530;2022-09-09T05:59:01;4.00;;;2.28;;
16478;SDS011;8350;52.316;10.530;2022-09-09T06:01:30;4.72;;;2.33;;
16478;SDS011;8350;52.316;10.530;2022-09-09T06:03:58;3.60;;;2.22;;
16478;SDS011;8350;52.316;10.530;2022-09-09T06:06:25;6.43;;;2.58;;
16478;SDS011;8350;52.316;10.530;2022-09-09T06:08:57;3.85;;;2.33;;
16478;SDS011;8350;52.316;10.530;2022-09-09T06:11:24;5.10;;;1.88;;
16478;SDS011;8350;52.316;10.530;2022-09-09T06:13:53;2.67;;;1.65;;
16478;SDS011;8350;52.316;10.530;2022-09-09T06:16:21;5.90;;;2.28;;
16478;SDS011;8350;52.316;10.530;2022-09-09T06:18:49;2.83;;;2.50;;
16478;SDS011;8350;52.316;10.530;2022-09-09T06:21:17;4.20;;;1.90;;
16478;SDS011;8350;52.316;10.530;2022-09-09T06:23:46;3.58;;;1.70;;
16478;SDS011;8350;52.316;10.530;2022-09-09T06:26:15;5.13;;;2.20;;
16478;SDS011;8350;52.316;10.530;2022-09-09T06:28:48;4.47;;;2.25;;
16478;SDS011;8350;52.316;10.530;2022-09-09T06:31:18;10.98;;;2.50;;
16478;SDS011;8350;52.316;10.530;2022-09-09T06:33:50;5.82;;;2.33;;
16478;SDS011;8350;52.316;10.530;2022-09-09T06:36:19;7.72;;;2.08;;
16478;SDS011;8350;52.316;10.530;2022-09-09T06:38:47;2.75;;;1.83;;
16478;SDS011;8350;52.316;10.530;2022-09-09T06:41:17;2.28;;;1.90;;
16478;SDS011;8350;52.316;10.530;2022-09-09T06:43:45;3.80;;;1.55;;
16478;SDS011;8350;52.316;10.530;2022-09-09T06:46:13;3.70;;;1.60;;
16478;SDS011;8350;52.316;10.530;2022-09-09T06:48:41;3.70;;;1.92;;
16478;SDS011;8350;52.316;10.530;2022-09-09T06:51:10;2.63;;;1.35;;
16478;SDS011;8350;52.316;10.530;2022-09-09T06:53:39;2.45;;;1.55;;
16478;SDS011;8350;52.316;10.530;2022-09-09T06:56:18;4.90;;;1.65;;
16478;SDS011;8350;52.316;10.530;2022-09-09T06:58:48;5.28;;;1.83;;
16478;SDS011;8350;52.316;10.530;2022-09-09T07:01:17;3.53;;;1.75;;
16478;SDS011;8350;52.316;10.530;2022-09-09T07:03:46;4.90;;;1.95;;
16478;SDS011;8350;52.316;10.530;2022-09-09T07:06:15;3.80;;;1.50;;
16478;SDS011;8350;52.316;10.530;2022-09-09T07:08:47;4.07;;;1.83;;
16478;SDS011;8350;52.316;10.530;2022-09-09T07:11:18;3.38;;;1.83;;
16478;SDS011;8350;52.316;10.530;2022-09-09T07:13:46;2.78;;;1.77;;
16478;SDS011;8350;52.316;10.530;2022-09-09T07:16:14;4.72;;;2.03;;
16478;SDS011;8350;52.316;10.530;2022-09-09T07:18:43;4.00;;;1.92;;
16478;SDS011;8350;52.316;10.530;2022-09-09T07:21:11;3.70;;;1.40;;
16478;SDS011;8350;52.316;10.530;2022-09-09T07:23:40;2.75;;;1.48;;
16478;SDS011;8350;52.316;10.530;2022-09-09T07:26:08;4.75;;;1.63;;
16478;SDS011;8350;52.316;10.530;2022-09-09T07:28:38;4.05;;;1.48;;
16478;SDS011;8350;52.316;10.530;2022-09-09T07:31:05;4.32;;;1.52;;
16478;SDS011;8350;52.316;10.530;2022-09-09T07:33:34;2.75;;;1.60;;
16478;SDS011;8350;52.316;10.530;2022-09-09T07:36:03;5.18;;;1.85;;
16478;SDS011;8350;52.316;10.530;2022-09-09T07:38:37;4.70;;;1.40;;
16478;SDS011;8350;52.316;10.530;2022-09-09T07:41:05;3.47;;;1.30;;
16478;SDS011;8350;52.316;10.530;2022-09-09T07:43:38;2.17;;;1.05;;
16478;SDS011;8350;52.316;10.530;2022-09-09T07:46:05;2.95;;;1.52;;
16478;SDS011;8350;52.316;10.530;2022-09-09T07:48:35;3.92;;;2.03;;
16478;SDS011;8350;52.316;10.530;2022-09-09T07:51:06;3.53;;;1.80;;
16478;SDS011;8350;52.316;10.530;2022-09-09T07:53:36;3.65;;;1.70;;
16478;SDS011;8350;52.316;10.530;2022-09-09T07:56:04;3.50;;;1.40;;
16478;SDS011;8350;52.316;10.530;2022-09-09T07:58:34;2.90;;;1.55;;
16478;SDS011;8350;52.316;10.530;2022-09-09T08:01:07;3.58;;;1.20;;
16478;SDS011;8350;52.316;10.530;2022-09-09T08:03:36;3.35;;;1.58;;
16478;SDS011;8350;52.316;10.530;2022-09-09T08:06:05;4.13;;;1.30;;
16478;SDS011;8350;52.316;10.530;2022-09-09T08:08:35;1.95;;;1.40;;
16478;SDS011;8350;52.316;10.530;2022-09-09T08:11:04;5.32;;;1.35;;
16478;SDS011;8350;52.316;10.530;2022-09-09T08:13:34;2.97;;;1.10;;
16478;SDS011;8350;52.316;10.530;2022-09-09T08:16:07;4.10;;;1.30;;
16478;SDS011;8350;52.316;10.530;2022-09-09T08:18:35;3.95;;;1.10;;
16478;SDS011;8350;52.316;10.530;2022-09-09T08:21:09;3.20;;;1.33;;
16478;SDS011;8350;52.316;10.530;2022-09-09T08:23:38;5.75;;;1.65;;
16478;SDS011;8350;52.316;10.530;2022-09-09T08:26:06;4.43;;;1.30;;
16478;SDS011;8350;52.316;10.530;2022-09-09T08:28:36;1.70;;;0.82;;
16478;SDS011;8350;52.316;10.530;2022-09-09T08:31:08;3.63;;;1.10;;
16478;SDS011;8350;52.316;10.530;2022-09-09T08:33:36;3.97;;;1.20;;
16478;SDS011;8350;52.316;10.530;2022-09-09T08:36:04;3.78;;;1.33;;
16478;SDS011;8350;52.316;10.530;2022-09-09T08:38:34;2.58;;;1.20;;
16478;SDS011;8350;52.316;10.530;2022-09-09T08:41:06;1.70;;;1.00;;
16478;SDS011;8350;52.316;10.530;2022-09-09T08:43:58;3.05;;;1.00;;
16478;SDS011;8350;52.316;10.530;2022-09-09T08:46:35;3.95;;;1.67;;
16478;SDS011;8350;52.316;10.530;2022-09-09T08:49:14;3.65;;;1.40;;
16478;SDS011;8350;52.316;10.530;2022-09-09T08:51:50;2.55;;;0.80;;
16478;SDS011;8350;52.316;10.530;2022-09-09T08:54:22;3.20;;;1.30;;
16478;SDS011;8350;52.316;10.530;2022-09-09T08:56:49;2.42;;;1.42;;
16478;SDS011;8350;52.316;10.530;2022-09-09T08:59:17;3.92;;;1.10;;
16478;SDS011;8350;52.316;10.530;2022-09-09T09:02:00;3.17;;;1.10;;
16478;SDS011;8350;52.316;10.530;2022-09-09T09:04:42;1.88;;;1.20;;
16478;SDS011;8350;52.316;10.530;2022-09-09T09:07:22;2.38;;;1.10;;
16478;SDS011;8350;52.316;10.530;2022-09-09T09:10:01;2.47;;;0.90;;
16478;SDS011;8350;52.316;10.530;2022-09-09T09:12:32;2.10;;;1.00;;
16478;SDS011;8350;52.316;10.530;2022-09-09T09:15:05;5.80;;;1.50;;
16478;SDS011;8350;52.316;10.530;2022-09-09T09:17:43;4.40;;;1.00;;
16478;SDS011;8350;52.316;10.530;2022-09-09T09:20:11;3.38;;;0.90;;
16478;SDS011;8350;52.316;10.530;2022-09-09T09:22:43;2.28;;;0.85;;
16478;SDS011;8350;52.316;10.530;2022-09-09T09:25:16;3.65;;;1.27;;
16478;SDS011;8350;52.316;10.530;2022-09-09T09:27:47;2.22;;;1.00;;
16478;SDS011;8350;52.316;10.530;2022-09-09T09:30:22;2.80;;;1.02;;
16478;SDS011;8350;52.316;10.530;2022-09-09T09:32:54;1.52;;;0.75;;
16478;SDS011;8350;52.316;10.530;2022-09-09T09:35:23;2.88;;;0.90;;
16478;SDS011;8350;52.316;10.530;2022-09-09T09:37:50;3.83;;;0.95;;
16478;SDS011;8350;52.316;10.530;2022-09-09T09:40:18;4.00;;;1.63;;
16478;SDS011;8350;52.316;10.530;2022-09-09T09:42:48;2.97;;;1.02;;
16478;SDS011;8350;52.316;10.530;2022-09-09T09:45:20;3.72;;;0.90;;
16478;SDS011;8350;52.316;10.530;2022-09-09T09:47:59;2.78;;;1.02;;
16478;SDS011;8350;52.316;10.530;2022-09-09T09:50:27;2.30;;;0.95;;
16478;SDS011;8350;52.316;10.530;2022-09-09T09:52:55;3.03;;;1.10;;
16478;SDS011;8350;52.316;10.530;2022-09-09T09:55:24;1.98;;;0.90;;
16478;SDS011;8350;52.316;10.530;2022-09-09T09:57:52;2.10;;;0.82;;
16478;SDS011;8350;52.316;10.530;2022-09-09T10:00:20;3.13;;;0.98;;
16478;SDS011;8350;52.316;10.530;2022-09-09T10:02:49;3.60;;;1.25;;
16478;SDS011;8350;52.316;10.530;2022-09-09T10:05:20;3.45;;;0.95;;
16478;SDS011;8350;52.316;10.530;2022-09-09T10:08:00;2.10;;;1.05;;
16478;SDS011;8350;52.316;10.530;2022-09-09T10:10:34;2.45;;;1.13;;
16478;SDS011;8350;52.316;10.530;2022-09-09T10:13:18;2.22;;;1.00;;
16478;SDS011;8350;52.316;10.530;2022-09-09T10:15:52;1.73;;;1.20;;
16478;SDS011;8350;52.316;10.530;2022-09-09T10:18:34;2.45;;;0.90;;
16478;SDS011;8350;52.316;10.530;2022-09-09T10:21:12;2.72;;;0.82;;
16478;SDS011;8350;52.316;10.530;2022-09-09T10:23:54;1.83;;;0.90;;
16478;SDS011;8350;52.316;10.530;2022-09-09T10:26:36;2.75;;;0.80;;
16478;SDS011;8350;52.316;10.530;2022-09-09T10:29:13;2.22;;;0.90;;
16478;SDS011;8350;52.316;10.530;2022-09-09T10:31:54;2.13;;;1.17;;
16478;SDS011;8350;52.316;10.530;2022-09-09T10:34:41;3.72;;;1.20;;
16478;SDS011;8350;52.316;10.530;2022-09-09T10:37:26;2.28;;;1.02;;
16478;SDS011;8350;52.316;10.530;2022-09-09T10:40:04;3.88;;;1.00;;
16478;SDS011;8350;52.316;10.530;2022-09-09T10:42:46;3.38;;;1.00;;
16478;SDS011;8350;52.316;10.530;2022-09-09T10:45:15;2.65;;;0.80;;
16478;SDS011;8350;52.316;10.530;2022-09-09T10:47:49;2.53;;;0.77;;
16478;SDS011;8350;52.316;10.530;2022-09-09T10:50:43;2.78;;;1.15;;
16478;SDS011;8350;52.316;10.530;2022-09-09T10:53:24;4.07;;;1.20;;
16478;SDS011;8350;52.316;10.530;2022-09-09T10:56:01;2.25;;;0.90;;
16478;SDS011;8350;52.316;10.530;2022-09-09T10:58:33;3.08;;;1.38;;
16478;SDS011;8350;52.316;10.530;2022-09-09T11:01:09;4.70;;;1.50;;
16478;SDS011;8350;52.316;10.530;2022-09-09T11:03:43;3.38;;;1.67;;
16478;SDS011;8350;52.316;10.530;2022-09-09T11:06:16;3.33;;;1.30;;
16478;SDS011;8350;52.316;10.530;2022-09-09T11:08:52;3.92;;;1.67;;
16478;SDS011;8350;52.316;10.530;2022-09-09T11:11:20;3.95;;;1.77;;
16478;SDS011;8350;52.316;10.530;2022-09-09T11:13:53;6.22;;;1.85;;
16478;SDS011;8350;52.316;10.530;2022-09-09T11:16:27;4.75;;;1.42;;
16478;SDS011;8350;52.316;10.530;2022-09-09T11:18:58;4.80;;;1.30;;
16478;SDS011;8350;52.316;10.530;2022-09-09T11:21:30;4.38;;;1.65;;
16478;SDS011;8350;52.316;10.530;2022-09-09T11:24:04;4.07;;;1.80;;
16478;SDS011;8350;52.316;10.530;2022-09-09T11:26:37;4.18;;;1.05;;
16478;SDS011;8350;52.316;10.530;2022-09-09T11:29:22;4.13;;;1.23;;
16478;SDS011;8350;52.316;10.530;2022-09-09T11:32:06;3.50;;;1.25;;
16478;SDS011;8350;52.316;10.530;2022-09-09T11:34:49;3.40;;;1.13;;
16478;SDS011;8350;52.316;10.530;2022-09-09T11:37:36;4.32;;;1.17;;
16478;SDS011;8350;52.316;10.530;2022-09-09T11:40:20;2.80;;;1.33;;
16478;SDS011;8350;52.316;10.530;2022-09-09T11:43:00;4.95;;;1.42;;
16478;SDS011;8350;52.316;10.530;2022-09-09T11:45:29;4.20;;;1.20;;
16478;SDS011;8350;52.316;10.530;2022-09-09T11:47:56;4.53;;;1.52;;
16478;SDS011;8350;52.316;10.530;2022-09-09T11:50:29;3.65;;;1.52;;
16478;SDS011;8350;52.316;10.530;2022-09-09T11:53:03;3.67;;;1.50;;
16478;SDS011;8350;52.316;10.530;2022-09-09T11:55:42;3.85;;;1.50;;
16478;SDS011;8350;52.316;10.530;2022-09-09T11:58:14;5.75;;;1.58;;
16478;SDS011;8350;52.316;10.530;2022-09-09T12:00:44;3.33;;;1.42;;
16478;SDS011;8350;52.316;10.530;2022-09-09T12:06:11;2.63;;;1.10;;
16478;SDS011;8350;52.316;10.530;2022-09-09T12:08:45;5.22;;;1.52;;
16478;SDS011;8350;52.316;10.530;2022-09-09T12:11:24;4.45;;;1.48;;
16478;SDS011;8350;52.316;10.530;2022-09-09T12:13:53;1.92;;;1.15;;
16478;SDS011;8350;52.316;10.530;2022-09-09T12:16:27;3.50;;;1.27;;
16478;SDS011;8350;52.316;10.530;2022-09-09T12:19:13;3.90;;;1.55;;
16478;SDS011;8350;52.316;10.530;2022-09-09T12:21:44;2.13;;;1.20;;
16478;SDS011;8350;52.316;10.530;2022-09-09T12:24:19;2.10;;;0.90;;
16478;SDS011;8350;52.316;10.530;2022-09-09T12:26:56;2.20;;;0.88;;
16478;SDS011;8350;52.316;10.530;2022-09-09T12:29:27;2.08;;;1.10;;
16478;SDS011;8350;52.316;10.530;2022-09-09T12:32:04;1.65;;;1.25;;
16478;SDS011;8350;52.316;10.530;2022-09-09T12:34:38;3.20;;;1.48;;
16478;SDS011;8350;52.316;10.530;2022-09-09T12:37:08;5.05;;;1.50;;
16478;SDS011;8350;52.316;10.530;2022-09-09T12:39:45;3.88;;;1.10;;
16478;SDS011;8350;52.316;10.530;2022-09-09T12:42:17;3.42;;;1.10;;
16478;SDS011;8350;52.316;10.530;2022-09-09T12:44:56;2.65;;;1.00;;
16478;SDS011;8350;52.316;10.530;2022-09-09T12:47:25;3.05;;;1.08;;
16478;SDS011;8350;52.316;10.530;2022-09-09T12:50:00;3.00;;;1.13;;
16478;SDS011;8350;52.316;10.530;2022-09-09T12:52:29;4.22;;;1.25;;
16478;SDS011;8350;52.316;10.530;2022-09-09T12:54:59;3.05;;;1.17;;
16478;SDS011;8350;52.316;10.530;2022-09-09T12:57:31;3.40;;;1.05;;
16478;SDS011;8350;52.316;10.530;2022-09-09T13:00:07;4.00;;;0.90;;
16478;SDS011;8350;52.316;10.530;2022-09-09T13:02:45;2.58;;;1.30;;
16478;SDS011;8350;52.316;10.530;2022-09-09T13:05:16;1.55;;;0.90;;
16478;SDS011;8350;52.316;10.530;2022-09-09T13:07:45;3.15;;;1.15;;
16478;SDS011;8350;52.316;10.530;2022-09-09T13:10:13;3.13;;;0.95;;
16478;SDS011;8350;52.316;10.530;2022-09-09T13:12:47;2.88;;;0.88;;
16478;SDS011;8350;52.316;10.530;2022-09-09T13:15:16;4.03;;;1.10;;
16478;SDS011;8350;52.316;10.530;2022-09-09T13:17:51;3.00;;;0.80;;
16478;SDS011;8350;52.316;10.530;2022-09-09T13:20:20;2.22;;;1.00;;
16478;SDS011;8350;52.316;10.530;2022-09-09T13:22:50;2.13;;;0.90;;
16478;SDS011;8350;52.316;10.530;2022-09-09T13:25:20;3.53;;;1.25;;
16478;SDS011;8350;52.316;10.530;2022-09-09T13:27:56;4.85;;;0.93;;
16478;SDS011;8350;52.316;10.530;2022-09-09T13:30:26;1.17;;;0.75;;
16478;SDS011;8350;52.316;10.530;2022-09-09T13:33:02;3.35;;;1.02;;
16478;SDS011;8350;52.316;10.530;2022-09-09T13:35:45;2.45;;;1.02;;
16478;SDS011;8350;52.316;10.530;2022-09-09T13:38:15;2.47;;;0.70;;
16478;SDS011;8350;52.316;10.530;2022-09-09T13:40:51;3.05;;;0.77;;
16478;SDS011;8350;52.316;10.530;2022-09-09T13:43:21;1.10;;;0.60;;
16478;SDS011;8350;52.316;10.530;2022-09-09T13:45:53;1.83;;;0.90;;
16478;SDS011;8350;52.316;10.530;2022-09-09T13:48:23;2.90;;;1.00;;
16478;SDS011;8350;52.316;10.530;2022-09-09T13:50:54;3.08;;;0.90;;
16478;SDS011;8350;52.316;10.530;2022-09-09T13:53:24;3.47;;;0.95;;
16478;SDS011;8350;52.316;10.530;2022-09-09T13:55:51;3.15;;;1.13;;
16478;SDS011;8350;52.316;10.530;2022-09-09T13:58:19;2.50;;;0.85;;
16478;SDS011;8350;52.316;10.530;2022-09-09T14:00:49;4.90;;;1.30;;
16478;SDS011;8350;52.316;10.530;2022-09-09T14:03:20;1.77;;;0.90;;
16478;SDS011;8350;52.316;10.530;2022-09-09T14:05:47;4.00;;;0.93;;
16478;SDS011;8350;52.316;10.530;2022-09-09T14:08:20;2.13;;;0.75;;
16478;SDS011;8350;52.316;10.530;2022-09-09T14:10:50;3.33;;;0.93;;
16478;SDS011;8350;52.316;10.530;2022-09-09T14:13:17;2.05;;;1.00;;
16478;SDS011;8350;52.316;10.530;2022-09-09T14:15:47;2.78;;;0.93;;
16478;SDS011;8350;52.316;10.530;2022-09-09T14:18:15;2.80;;;0.75;;
16478;SDS011;8350;52.316;10.530;2022-09-09T14:20:42;5.57;;;1.27;;
16478;SDS011;8350;52.316;10.530;2022-09-09T14:23:09;2.53;;;0.93;;
16478;SDS011;8350;52.316;10.530;2022-09-09T14:25:39;2.53;;;0.73;;
16478;SDS011;8350;52.316;10.530;2022-09-09T14:28:08;1.90;;;0.88;;
16478;SDS011;8350;52.316;10.530;2022-09-09T14:30:37;3.05;;;1.00;;
16478;SDS011;8350;52.316;10.530;2022-09-09T14:33:06;3.70;;;0.80;;
16478;SDS011;8350;52.316;10.530;2022-09-09T14:35:33;2.17;;;0.95;;
16478;SDS011;8350;52.316;10.530;2022-09-09T14:38:01;3.83;;;1.00;;
16478;SDS011;8350;52.316;10.530;2022-09-09T14:40:28;2.35;;;0.70;;
16478;SDS011;8350;52.316;10.530;2022-09-09T14:42:55;4.03;;;0.90;;
16478;SDS011;8350;52.316;10.530;2022-09-09T14:45:23;3.40;;;1.00;;
16478;SDS011;8350;52.316;10.530;2022-09-09T14:47:51;3.72;;;1.23;;
16478;SDS011;8350;52.316;10.530;2022-09-09T14:50:19;2.40;;;0.85;;
16478;SDS011;8350;52.316;10.530;2022-09-09T14:52:47;3.05;;;1.15;;
16478;SDS011;8350;52.316;10.530;2022-09-09T14:55:14;2.45;;;1.30;;
16478;SDS011;8350;52.316;10.530;2022-09-09T14:57:41;2.75;;;1.10;;
16478;SDS011;8350;52.316;10.530;2022-09-09T15:00:09;2.95;;;1.10;;
16478;SDS011;8350;52.316;10.530;2022-09-09T15:02:37;1.48;;;1.13;;
16478;SDS011;8350;52.316;10.530;2022-09-09T15:05:05;3.08;;;1.23;;
16478;SDS011;8350;52.316;10.530;2022-09-09T15:07:34;2.10;;;1.00;;
16478;SDS011;8350;52.316;10.530;2022-09-09T15:10:02;1.35;;;0.90;;
16478;SDS011;8350;52.316;10.530;2022-09-09T15:12:30;2.90;;;1.02;;
16478;SDS011;8350;52.316;10.530;2022-09-09T15:14:58;2.72;;;1.33;;
16478;SDS011;8350;52.316;10.530;2022-09-09T15:17:25;2.05;;;0.80;;